Time;durP1;ratioP1;P1;durP2;ratioP2;P2;SDS_P1;SDS_P2;PMS_P1;PMS_P2;Temp;Humidity;BMP_temperature;BMP_pressure;BME280_temperature;BME280_humidity;BME280_pressure;Samples;Min_cycle;Max_cycle;Signal;HPM_P1;HPM_P2
2023/09/26 00:01:07;;;;;;;7.53;4.28;;;;;;;10.55;100.00;99446.56;5008774;28;20033;-59
2023/09/26 00:03:33;;;;;;;6.80;4.47;;;;;;;10.55;100.00;99450.09;5011147;28;20031;-58
2023/09/26 00:05:58;;;;;;;7.15;3.80;;;;;;;10.37;100.00;99438.81;5005150;28;20037;-58
2023/09/26 00:08:23;;;;;;;9.77;4.32;;;;;;;10.28;100.00;99448.88;5011973;28;20018;-58
2023/09/26 00:10:49;;;;;;;6.22;4.38;;;;;;;10.22;100.00;99442.31;5012150;28;20030;-58
2023/09/26 00:13:15;;;;;;;5.70;4.40;;;;;;;10.17;100.00;99433.09;5011557;28;20038;-58
2023/09/26 00:15:41;;;;;;;5.88;4.22;;;;;;;10.16;100.00;99442.22;5008698;28;20065;-58
2023/09/26 00:18:07;;;;;;;6.72;4.70;;;;;;;10.05;100.00;99451.63;5011572;28;20053;-58
2023/09/26 00:20:35;;;;;;;7.32;5.35;;;;;;;10.05;100.00;99452.44;5010113;28;20553;-58
2023/09/26 00:23:01;;;;;;;9.68;5.97;;;;;;;9.98;100.00;99450.66;5011778;28;20396;-58
2023/09/26 00:25:26;;;;;;;13.27;6.55;;;;;;;9.95;100.00;99451.03;5012087;28;20464;-58
2023/09/26 00:27:52;;;;;;;12.65;6.68;;;;;;;9.93;100.00;99448.53;5011950;28;20121;-58
2023/09/26 00:30:19;;;;;;;12.25;6.78;;;;;;;9.90;100.00;99458.84;5011131;28;20361;-58
2023/09/26 00:32:45;;;;;;;10.13;6.07;;;;;;;9.87;100.00;99463.59;5008880;28;20053;-58
2023/09/26 00:35:12;;;;;;;7.55;5.45;;;;;;;9.84;100.00;99466.66;5025763;23;20515;-52
2023/09/26 00:37:41;;;;;;;9.77;6.32;;;;;;;9.86;100.00;99470.03;5031688;28;20022;-54
2023/09/26 00:40:14;;;;;;;8.77;6.28;;;;;;;9.87;100.00;99465.47;5030037;28;20028;-54
2023/09/26 00:42:39;;;;;;;12.35;7.05;;;;;;;9.91;100.00;99471.38;5025875;28;20441;-54
2023/09/26 00:45:06;;;;;;;10.32;6.65;;;;;;;9.97;100.00;99467.91;5028552;28;20116;-54
2023/09/26 00:47:34;;;;;;;7.10;5.30;;;;;;;9.86;100.00;99464.63;5030366;28;20394;-54
2023/09/26 00:50:03;;;;;;;7.22;4.32;;;;;;;9.80;100.00;99462.66;5022728;28;20049;-54
2023/09/26 00:52:29;;;;;;;10.73;4.82;;;;;;;9.78;100.00;99451.19;5031723;28;20029;-54
2023/09/26 00:54:55;;;;;;;6.32;4.40;;;;;;;9.75;100.00;99451.56;5027601;28;20026;-54
2023/09/26 00:57:21;;;;;;;7.00;4.70;;;;;;;9.72;100.00;99453.75;5015170;28;20044;-53
2023/09/26 00:59:46;;;;;;;8.95;5.68;;;;;;;9.69;100.00;99449.56;5030037;28;20020;-53
2023/09/26 01:02:12;;;;;;;11.52;5.95;;;;;;;9.68;100.00;99445.19;5023237;28;20438;-54
2023/09/26 01:04:38;;;;;;;13.10;6.28;;;;;;;9.67;100.00;99443.53;5033954;28;20079;-54
2023/09/26 01:07:03;;;;;;;8.30;5.55;;;;;;;9.70;100.00;99448.56;5031200;28;20053;-54
2023/09/26 01:09:29;;;;;;;13.45;5.95;;;;;;;9.76;100.00;99439.72;5029198;28;20030;-54
2023/09/26 01:11:55;;;;;;;8.77;5.40;;;;;;;9.73;100.00;99453.59;5022275;28;20025;-54
2023/09/26 01:14:20;;;;;;;10.25;4.82;;;;;;;9.62;100.00;99449.47;5033749;28;20029;-53
2023/09/26 01:16:46;;;;;;;7.97;5.30;;;;;;;9.62;100.00;99445.94;5025474;28;20367;-53
2023/09/26 01:19:11;;;;;;;8.60;5.13;;;;;;;9.40;100.00;99440.34;5030699;28;20025;-54
2023/09/26 01:21:37;;;;;;;12.55;4.80;;;;;;;9.41;100.00;99446.59;5029895;28;20053;-54
2023/09/26 01:24:02;;;;;;;7.78;4.53;;;;;;;9.38;100.00;99439.69;5029054;28;20515;-53
2023/09/26 01:26:36;;;;;;;7.22;4.70;;;;;;;9.30;100.00;99439.75;5030624;28;20033;-53
2023/09/26 01:29:02;;;;;;;6.30;4.70;;;;;;;9.20;100.00;99433.75;5025993;28;20025;-53
2023/09/26 01:31:28;;;;;;;8.15;5.68;;;;;;;9.20;100.00;99437.28;5029489;28;20037;-53
2023/09/26 01:33:53;;;;;;;7.97;5.28;;;;;;;9.28;100.00;99441.78;5028761;28;20029;-53
2023/09/26 01:36:19;;;;;;;9.95;5.40;;;;;;;9.25;100.00;99444.00;5029092;28;20032;-54
2023/09/26 01:38:44;;;;;;;10.15;6.05;;;;;;;9.26;100.00;99435.72;5029605;28;20116;-54
2023/09/26 01:41:09;;;;;;;11.20;6.18;;;;;;;9.19;100.00;99446.38;5013125;28;20033;-53
2023/09/26 01:43:36;;;;;;;14.35;7.20;;;;;;;9.23;100.00;99443.34;5027893;28;20037;-54
2023/09/26 01:46:02;;;;;;;13.60;6.95;;;;;;;9.23;100.00;99440.66;5031897;28;20087;-54
2023/09/26 01:48:28;;;;;;;11.93;7.18;;;;;;;9.26;100.00;99446.53;5034365;28;20033;-54
2023/09/26 01:50:53;;;;;;;9.48;6.65;;;;;;;9.19;100.00;99456.34;5031490;28;20033;-53
2023/09/26 01:53:19;;;;;;;13.30;6.57;;;;;;;9.16;100.00;99460.25;5026674;28;20439;-53
2023/09/26 01:55:44;;;;;;;12.82;6.18;;;;;;;9.12;100.00;99450.00;5029441;28;20038;-53
2023/09/26 01:58:09;;;;;;;9.00;6.35;;;;;;;9.12;100.00;99436.50;5032009;28;20025;-54
2023/09/26 02:00:35;;;;;;;10.38;6.75;;;;;;;9.09;100.00;99456.59;5031045;28;20060;-54
2023/09/26 02:03:00;;;;;;;9.52;6.35;;;;;;;9.06;100.00;99456.09;5033978;28;20056;-54
2023/09/26 02:05:26;;;;;;;11.25;6.80;;;;;;;8.98;100.00;99447.03;5029186;28;20473;-54
2023/09/26 02:07:51;;;;;;;9.00;6.28;;;;;;;9.02;100.00;99449.41;5031759;28;20455;-54
2023/09/26 02:10:18;;;;;;;10.32;7.20;;;;;;;9.08;100.00;99457.59;5039162;28;20026;-54
2023/09/26 02:12:49;;;;;;;10.05;7.07;;;;;;;9.00;100.00;99450.38;5030714;28;20040;-54
2023/09/26 02:15:15;;;;;;;12.40;6.72;;;;;;;9.15;100.00;99449.66;5032211;28;20021;-54
2023/09/26 02:17:41;;;;;;;11.52;7.10;;;;;;;9.05;100.00;99449.03;5031253;28;20026;-54
2023/09/26 02:20:12;;;;;;;10.95;7.45;;;;;;;8.99;100.00;99442.50;5033925;28;20083;-53
2023/09/26 02:22:58;;;;;;;14.13;7.22;;;;;;;9.05;100.00;99443.63;5029000;28;20037;-54
2023/09/26 02:25:24;;;;;;;10.50;7.10;;;;;;;8.98;100.00;99441.63;5021541;28;20381;-54
2023/09/26 02:27:50;;;;;;;6.75;4.95;;;;;;;8.97;100.00;99433.72;5034151;28;20036;-53
2023/09/26 02:30:18;;;;;;;8.50;4.60;;;;;;;8.91;100.00;99439.84;5032590;28;20014;-53
2023/09/26 02:32:43;;;;;;;5.65;4.05;;;;;;;8.86;100.00;99437.66;5028700;28;20477;-54
2023/09/26 02:35:12;;;;;;;5.65;3.70;;;;;;;8.82;100.00;99433.63;5026692;28;20124;-55
2023/09/26 02:37:38;;;;;;;10.73;3.75;;;;;;;8.78;100.00;99430.44;5032315;28;20021;-56
2023/09/26 02:40:09;;;;;;;10.80;4.35;;;;;;;8.89;100.00;99436.47;5034116;28;20022;-56
2023/09/26 02:42:35;;;;;;;5.13;3.97;;;;;;;8.91;100.00;99429.03;5028432;28;20497;-54
2023/09/26 02:45:02;;;;;;;8.40;3.85;;;;;;;8.80;100.00;99422.16;5033646;28;20123;-53
2023/09/26 02:47:27;;;;;;;6.70;3.83;;;;;;;8.68;100.00;99423.59;5032191;28;20028;-53
2023/09/26 02:49:52;;;;;;;5.07;3.83;;;;;;;8.59;100.00;99416.53;5029291;28;20017;-54
2023/09/26 02:52:18;;;;;;;7.18;4.97;;;;;;;8.63;100.00;99421.41;5033366;28;20491;-54
2023/09/26 02:54:44;;;;;;;7.78;4.57;;;;;;;8.61;100.00;99422.59;5032573;28;20080;-54
2023/09/26 02:57:09;;;;;;;8.60;4.25;;;;;;;8.52;100.00;99436.13;5016764;28;20432;-53
2023/09/26 02:59:35;;;;;;;5.75;4.15;;;;;;;8.44;100.00;99428.06;5031493;28;20028;-54
2023/09/26 03:02:00;;;;;;;10.35;4.90;;;;;;;8.41;100.00;99420.34;5024312;28;20067;-54
2023/09/26 03:04:26;;;;;;;10.20;4.38;;;;;;;8.45;100.00;99429.75;5029156;28;20468;-54
2023/09/26 03:06:51;;;;;;;7.05;5.03;;;;;;;8.48;100.00;99437.47;5033217;28;20056;-54
2023/09/26 03:09:17;;;;;;;6.90;4.63;;;;;;;8.55;100.00;99429.53;5030527;28;20068;-54
2023/09/26 03:11:45;;;;;;;7.72;4.85;;;;;;;8.53;100.00;99420.78;5021417;28;20034;-54
2023/09/26 03:14:10;;;;;;;7.38;4.47;;;;;;;8.47;100.00;99419.63;5030235;28;20048;-54
2023/09/26 03:16:36;;;;;;;11.60;5.57;;;;;;;8.50;100.00;99413.88;5032957;28;20057;-54
2023/09/26 03:19:02;;;;;;;9.63;6.10;;;;;;;8.54;100.00;99417.91;5032817;28;20025;-54
2023/09/26 03:21:27;;;;;;;9.35;5.80;;;;;;;8.49;100.00;99417.59;5020818;28;20496;-54
2023/09/26 03:23:52;;;;;;;11.27;6.05;;;;;;;8.49;100.00;99423.00;5029764;28;20124;-54
2023/09/26 03:26:18;;;;;;;8.68;5.97;;;;;;;8.44;100.00;99425.38;5022671;28;20385;-54
2023/09/26 03:28:43;;;;;;;8.48;6.03;;;;;;;8.38;100.00;99420.63;5031158;28;20458;-54
2023/09/26 03:31:09;;;;;;;7.45;4.95;;;;;;;8.29;100.00;99429.78;5017193;28;20091;-54
2023/09/26 03:33:34;;;;;;;10.55;5.55;;;;;;;8.29;100.00;99427.91;5031904;28;20055;-54
2023/09/26 03:36:00;;;;;;;11.65;5.80;;;;;;;8.37;100.00;99415.44;5028045;28;20056;-54
2023/09/26 03:38:27;;;;;;;8.05;5.13;;;;;;;8.33;100.00;99423.00;5028002;28;20085;-54
2023/09/26 03:40:57;;;;;;;10.57;4.70;;;;;;;8.23;100.00;99420.53;5028867;28;20502;-54
2023/09/26 03:43:24;;;;;;;7.70;5.47;;;;;;;8.18;100.00;99419.38;5031852;28;20186;-54
2023/09/26 03:45:49;;;;;;;9.07;5.47;;;;;;;8.16;100.00;99422.22;5016397;28;20030;-54
2023/09/26 03:48:14;;;;;;;12.50;6.45;;;;;;;8.21;100.00;99414.47;5032451;28;20044;-54
2023/09/26 03:50:41;;;;;;;7.95;6.05;;;;;;;8.22;100.00;99420.69;5028242;28;20044;-54
2023/09/26 03:53:07;;;;;;;8.88;5.55;;;;;;;8.15;100.00;99417.00;5031817;28;20067;-54
2023/09/26 03:55:33;;;;;;;9.20;6.60;;;;;;;8.20;100.00;99414.63;5027338;28;20445;-54
2023/09/26 03:57:59;;;;;;;9.63;6.50;;;;;;;8.19;100.00;99423.72;5030474;28;20061;-54
2023/09/26 04:00:26;;;;;;;7.43;5.70;;;;;;;8.17;100.00;99417.66;5020662;28;20049;-54
2023/09/26 04:02:55;;;;;;;9.95;5.45;;;;;;;8.06;100.00;99411.63;5032915;28;20412;-53
2023/09/26 04:05:21;;;;;;;11.23;6.30;;;;;;;8.17;100.00;99417.66;5028788;28;20470;-54
2023/09/26 04:07:47;;;;;;;6.75;4.97;;;;;;;8.15;100.00;99414.28;5028719;28;20120;-54
2023/09/26 04:10:13;;;;;;;10.23;6.18;;;;;;;8.10;100.00;99418.38;5028150;28;20033;-53
2023/09/26 04:12:39;;;;;;;8.65;5.43;;;;;;;8.04;100.00;99413.69;5020793;28;20174;-53
2023/09/26 04:15:05;;;;;;;8.65;5.82;;;;;;;8.02;100.00;99409.47;5038708;28;20051;-53
2023/09/26 04:17:30;;;;;;;7.50;5.30;;;;;;;8.07;100.00;99418.72;5030256;28;20030;-53
2023/09/26 04:19:57;;;;;;;8.32;5.22;;;;;;;8.06;100.00;99414.31;5032044;28;20026;-54
2023/09/26 04:22:23;;;;;;;8.77;5.13;;;;;;;8.02;100.00;99414.88;5028507;28;20025;-54
2023/09/26 04:24:48;;;;;;;9.45;5.70;;;;;;;7.99;100.00;99421.44;5031723;28;20383;-54
2023/09/26 04:27:14;;;;;;;8.65;6.18;;;;;;;7.98;100.00;99413.50;5029717;28;20033;-54
2023/09/26 04:29:40;;;;;;;11.13;7.28;;;;;;;7.92;100.00;99408.81;5029219;28;20021;-54
2023/09/26 04:32:05;;;;;;;11.75;8.15;;;;;;;7.98;100.00;99411.66;5030017;28;20396;-54
2023/09/26 04:34:32;;;;;;;10.88;7.28;;;;;;;7.99;100.00;99409.78;5027985;28;20081;-54
2023/09/26 04:36:57;;;;;;;10.13;7.20;;;;;;;7.95;100.00;99403.91;5028919;28;20029;-54
2023/09/26 04:39:23;;;;;;;17.45;7.05;;;;;;;8.06;100.00;99416.19;5032576;28;20037;-54
2023/09/26 04:41:49;;;;;;;9.10;6.65;;;;;;;7.94;100.00;99413.03;5036692;28;20078;-55
2023/09/26 04:44:14;;;;;;;9.13;5.95;;;;;;;7.97;100.00;99401.91;5031129;28;20036;-54
2023/09/26 04:46:40;;;;;;;8.57;5.82;;;;;;;7.86;100.00;99404.97;5027764;28;20029;-54
2023/09/26 04:49:06;;;;;;;11.07;6.20;;;;;;;7.85;100.00;99406.78;5031232;28;20394;-54
2023/09/26 04:51:31;;;;;;;10.50;5.65;;;;;;;8.01;100.00;99403.22;5025768;28;20039;-54
2023/09/26 04:54:01;;;;;;;8.27;5.38;;;;;;;7.92;100.00;99398.88;5024814;28;20107;-54
2023/09/26 04:56:27;;;;;;;;;;;;;;;7.88;100.00;99408.31;5024646;28;20039;-54
2023/09/26 04:58:52;;;;;;;10.18;6.47;;;;;;;7.92;100.00;99401.56;5028455;28;19916;-54
2023/09/26 05:01:17;;;;;;;10.38;5.85;;;;;;;7.93;100.00;99395.16;5025280;28;20084;-54
2023/09/26 05:03:44;;;;;;;12.10;5.53;;;;;;;7.89;100.00;99410.84;5030260;28;20036;-55
2023/09/26 05:06:11;;;;;;;10.38;5.45;;;;;;;7.89;100.00;99408.16;5030902;28;20116;-54
2023/09/26 05:08:37;;;;;;;8.90;5.25;;;;;;;7.86;100.00;99400.41;5027717;28;20104;-54
2023/09/26 05:11:03;;;;;;;14.77;6.07;;;;;;;8.05;100.00;99399.19;5026483;28;20341;-54
2023/09/26 05:13:29;;;;;;;7.47;5.53;;;;;;;8.13;100.00;99401.00;5022780;28;20455;-55
2023/09/26 05:16:01;;;;;;;8.20;5.15;;;;;;;8.01;100.00;99403.22;5015852;28;20116;-55
2023/09/26 05:18:27;;;;;;;12.25;5.07;;;;;;;7.87;100.00;99395.84;5019127;28;20029;-54
2023/09/26 05:21:05;;;;;;;7.75;5.53;;;;;;;7.90;100.00;99406.28;5034333;28;20021;-54
2023/09/26 05:23:31;;;;;;;7.73;5.57;;;;;;;7.80;100.00;99400.22;5035177;28;20167;-54
2023/09/26 05:26:04;;;;;;;9.07;5.10;;;;;;;7.76;100.00;99410.53;5030540;28;20487;-55
2023/09/26 05:28:29;;;;;;;9.30;4.70;;;;;;;7.76;100.00;99410.53;5028406;28;20021;-54
2023/09/26 05:30:55;;;;;;;9.55;5.22;;;;;;;7.67;100.00;99412.38;5032897;28;20587;-54
2023/09/26 05:33:20;;;;;;;6.88;4.60;;;;;;;7.69;100.00;99409.50;5035692;28;20036;-54
2023/09/26 05:35:45;;;;;;;7.10;4.85;;;;;;;7.80;100.00;99405.63;5030373;28;20021;-55
2023/09/26 05:38:11;;;;;;;7.15;4.72;;;;;;;7.90;100.00;99411.66;5021730;28;20048;-54
2023/09/26 05:40:36;;;;;;;11.07;4.82;;;;;;;7.96;100.00;99412.84;5014868;28;20029;-54
2023/09/26 05:43:02;;;;;;;6.45;4.38;;;;;;;8.05;100.00;99409.97;5026411;28;20033;-54
2023/09/26 05:45:28;;;;;;;8.55;4.95;;;;;;;8.13;100.00;99417.19;5028128;28;20499;-55
2023/09/26 05:47:53;;;;;;;11.40;5.15;;;;;;;8.30;100.00;99405.31;5015751;28;20546;-54
2023/09/26 05:50:19;;;;;;;7.57;4.78;;;;;;;8.44;100.00;99400.28;5027497;28;20018;-54
2023/09/26 05:52:44;;;;;;;6.75;4.55;;;;;;;8.62;100.00;99403.56;5032249;28;20481;-55
2023/09/26 05:55:09;;;;;;;6.93;4.43;;;;;;;8.95;100.00;99404.19;5034095;28;20107;-54
2023/09/26 05:57:35;;;;;;;16.85;4.15;;;;;;;10.78;100.00;99378.78;5031367;28;20116;-54
2023/09/26 06:00:00;;;;;;;5.15;3.47;;;;;;;12.75;100.00;99347.09;5027817;28;20030;-54
2023/09/26 06:02:25;;;;;;;6.20;3.38;;;;;;;14.66;100.00;99339.06;5029193;28;20465;-55
2023/09/26 06:04:51;;;;;;;8.10;2.92;;;;;;;16.34;100.00;99323.88;5034192;28;20071;-54
2023/09/26 06:07:16;;;;;;;5.25;3.08;;;;;;;17.30;100.00;99321.34;5035214;28;20052;-55
2023/09/26 06:09:42;;;;;;;3.88;2.78;;;;;;;18.77;100.00;99320.31;5019530;28;20426;-54
2023/09/26 06:12:07;;;;;;;5.07;2.83;;;;;;;19.49;100.00;99316.97;5034554;28;20084;-55
2023/09/26 06:14:33;;;;;;;6.43;2.58;;;;;;;19.46;100.00;99327.59;5025077;28;20063;-55
2023/09/26 06:17:00;;;;;;;5.10;2.42;;;;;;;20.17;100.00;99321.56;5035839;28;20372;-55
2023/09/26 06:19:25;;;;;;;3.17;2.38;;;;;;;20.79;87.16;99321.28;5032313;28;20435;-55
2023/09/26 06:21:50;;;;;;;4.75;2.35;;;;;;;21.17;80.68;99327.78;5028742;28;20091;-54
2023/09/26 06:24:17;;;;;;;4.75;2.65;;;;;;;22.14;76.35;99327.72;5020400;28;20092;-55
2023/09/26 06:26:43;;;;;;;3.15;2.47;;;;;;;22.13;73.62;99328.81;5029583;28;20029;-56
2023/09/26 06:29:08;;;;;;;6.65;2.05;;;;;;;23.37;67.67;99329.88;5026190;28;20026;-56
2023/09/26 06:31:35;;;;;;;2.72;2.10;;;;;;;23.38;67.70;99336.22;5028640;28;20032;-56
2023/09/26 06:34:01;;;;;;;3.95;2.35;;;;;;;23.68;63.91;99337.34;5034806;28;20032;-56
2023/09/26 06:36:30;;;;;;;5.75;2.30;;;;;;;23.03;65.27;99340.59;5024825;28;20030;-54
2023/09/26 06:38:57;;;;;;;5.70;1.98;;;;;;;23.97;60.78;99332.94;5027795;28;20097;-54
2023/09/26 06:41:22;;;;;;;4.35;2.50;;;;;;;25.29;59.23;99339.09;5030890;28;20076;-54
2023/09/26 06:43:48;;;;;;;10.30;2.95;;;;;;;26.55;55.21;99334.66;5027507;28;20048;-54
2023/09/26 06:46:13;;;;;;;5.18;2.35;;;;;;;26.91;52.77;99336.97;5033034;28;20529;-54
2023/09/26 06:48:39;;;;;;;3.25;2.28;;;;;;;26.91;51.96;99331.41;5019613;28;20029;-55
2023/09/26 06:51:05;;;;;;;4.65;2.67;;;;;;;26.42;53.72;99336.16;5031827;28;20057;-53
2023/09/26 06:53:31;;;;;;;6.43;2.60;;;;;;;27.63;51.22;99333.97;5025713;28;20388;-50
2023/09/26 06:56:01;;;;;;;5.70;3.17;;;;;;;27.68;49.55;99328.31;5023910;28;20026;-50
2023/09/26 06:58:26;;;;;;;5.45;2.80;;;;;;;27.44;50.12;99330.41;5031293;28;20033;-50
2023/09/26 07:00:52;;;;;;;11.05;3.10;;;;;;;28.66;48.38;99330.16;5027998;28;20022;-50
2023/09/26 07:03:18;;;;;;;6.43;3.58;;;;;;;28.48;47.92;99334.72;5021978;28;20033;-51
2023/09/26 07:05:44;;;;;;;4.13;2.40;;;;;;;27.92;49.15;99332.94;5028644;28;20052;-50
2023/09/26 07:08:12;;;;;;;5.15;2.38;;;;;;;28.46;47.91;99334.19;5029616;28;20478;-51
2023/09/26 07:10:38;;;;;;;7.72;2.35;;;;;;;28.35;48.22;99324.38;5032425;28;20025;-51
2023/09/26 07:13:04;;;;;;;5.07;2.25;;;;;;;28.16;49.27;99333.63;5027379;28;20492;-51
2023/09/26 07:15:31;;;;;;;7.47;2.80;;;;;;;27.96;50.24;99328.44;5027151;28;20426;-51
2023/09/26 07:17:58;;;;;;;6.28;2.13;;;;;;;27.76;50.78;99327.63;5027488;28;20017;-50
2023/09/26 07:20:25;;;;;;;3.72;2.58;;;;;;;28.19;51.24;99329.38;5026750;28;20022;-50
2023/09/26 07:22:50;;;;;;;4.72;2.45;;;;;;;28.48;50.72;99320.81;5029836;28;20021;-51
2023/09/26 07:25:16;;;;;;;3.40;2.50;;;;;;;28.18;51.23;99325.78;5030402;28;20033;-51
2023/09/26 07:27:41;;;;;;;4.97;2.38;;;;;;;29.56;48.21;99322.03;5030096;28;20690;-51
2023/09/26 07:30:08;;;;;;;3.45;2.10;;;;;;;31.01;45.85;99315.00;5033214;28;20389;-52
2023/09/26 07:32:34;;;;;;;2.45;1.95;;;;;;;30.86;45.79;99315.47;5032817;28;20026;-52
2023/09/26 07:34:59;;;;;;;5.28;2.47;;;;;;;32.43;43.50;99321.75;5032557;28;20030;-51
2023/09/26 07:37:25;;;;;;;3.45;2.22;;;;;;;32.00;44.04;99312.34;5029490;28;20026;-51
2023/09/26 07:39:51;;;;;;;4.53;2.20;;;;;;;32.55;42.38;99316.28;5026040;28;20021;-52
2023/09/26 07:42:20;;;;;;;2.88;2.13;;;;;;;33.68;41.57;99314.69;5032114;28;20029;-51
2023/09/26 07:44:46;;;;;;;5.30;2.10;;;;;;;33.20;41.50;99316.91;5030181;28;20021;-51
2023/09/26 07:47:11;;;;;;;5.50;2.55;;;;;;;32.57;42.50;99316.78;5046912;28;20044;-51
2023/09/26 07:49:37;;;;;;;3.13;2.17;;;;;;;34.09;40.75;99319.41;5029767;28;20029;-51
2023/09/26 07:52:03;;;;;;;4.30;2.03;;;;;;;34.80;38.96;99320.16;5034397;28;20124;-51
2023/09/26 07:54:28;;;;;;;4.25;2.38;;;;;;;34.07;39.07;99320.91;5029005;28;20025;-51
2023/09/26 07:56:54;;;;;;;5.53;2.60;;;;;;;34.10;39.11;99318.22;5030507;28;20028;-51
2023/09/26 07:59:19;;;;;;;3.65;2.55;;;;;;;32.86;40.02;99321.56;5016289;28;20374;-51
2023/09/26 08:01:45;;;;;;;4.03;2.15;;;;;;;33.23;40.50;99321.81;5028266;28;20385;-51
2023/09/26 08:04:10;;;;;;;5.78;2.53;;;;;;;33.54;39.91;99321.41;5030421;28;20025;-51
2023/09/26 08:06:35;;;;;;;5.47;2.55;;;;;;;32.77;41.26;99319.97;5030136;28;20026;-51
2023/09/26 08:09:01;;;;;;;2.90;2.45;;;;;;;32.05;43.04;99319.75;5032098;28;20084;-51
2023/09/26 08:11:27;;;;;;;7.43;2.30;;;;;;;33.72;40.61;99313.66;5025326;28;20057;-51
2023/09/26 08:13:54;;;;;;;2.97;2.40;;;;;;;34.08;40.63;99317.75;5031248;28;20021;-51
2023/09/26 08:16:21;;;;;;;2.70;2.20;;;;;;;34.28;40.83;99313.22;5033466;28;20033;-51
2023/09/26 08:18:47;;;;;;;3.92;2.08;;;;;;;34.89;39.55;99318.03;5032270;28;20029;-51
2023/09/26 08:21:14;;;;;;;6.22;2.05;;;;;;;35.65;39.44;99312.72;5038696;28;20386;-51
2023/09/26 08:23:40;;;;;;;4.30;2.10;;;;;;;35.08;40.29;99312.66;5030592;28;20022;-51
2023/09/26 08:26:11;;;;;;;4.60;2.40;;;;;;;35.02;39.87;99308.41;5032373;28;20032;-52
2023/09/26 08:28:40;;;;;;;6.40;2.50;;;;;;;34.30;40.67;99312.84;5031930;28;20029;-51
2023/09/26 08:31:09;;;;;;;3.70;2.17;;;;;;;33.35;42.80;99304.22;5031855;28;20048;-51
2023/09/26 08:33:37;;;;;;;6.43;2.67;;;;;;;34.62;40.46;99311.97;5031349;28;20021;-51
2023/09/26 08:36:12;;;;;;;2.63;2.23;;;;;;;36.59;38.56;99297.13;5031876;28;20086;-51
2023/09/26 08:38:37;;;;;;;3.40;2.42;;;;;;;37.05;37.23;99303.06;5029961;28;20021;-51
2023/09/26 08:41:05;;;;;;;5.53;3.13;;;;;;;35.47;39.13;99298.91;5032324;28;20465;-51
2023/09/26 08:43:33;;;;;;;3.90;2.22;;;;;;;36.34;38.85;99294.50;5030235;28;20457;-51
2023/09/26 08:45:59;;;;;;;3.85;2.65;;;;;;;36.18;37.95;99299.28;5030379;28;20123;-51
2023/09/26 08:48:24;;;;;;;5.15;2.95;;;;;;;35.63;38.59;99298.19;5037108;28;20326;-51
2023/09/26 08:50:51;;;;;;;5.03;2.78;;;;;;;36.85;38.28;99283.25;5033475;28;20036;-51
2023/09/26 08:53:17;;;;;;;7.07;2.90;;;;;;;36.65;37.59;99301.28;5031501;28;20115;-51
2023/09/26 08:55:43;;;;;;;4.82;2.45;;;;;;;36.92;37.65;99298.69;5048289;28;20029;-51
2023/09/26 08:58:09;;;;;;;5.45;3.15;;;;;;;36.24;38.49;99299.84;5028795;28;20033;-52
2023/09/26 09:00:35;;;;;;;8.80;3.10;;;;;;;35.81;39.14;99295.88;5031331;28;20032;-51
2023/09/26 09:03:00;;;;;;;4.82;3.20;;;;;;;36.23;38.30;99299.00;5030660;28;20033;-51
2023/09/26 09:05:26;;;;;;;6.18;2.65;;;;;;;36.07;38.54;99286.94;5031889;28;20017;-52
2023/09/26 09:07:51;;;;;;;3.67;2.30;;;;;;;36.81;38.00;99290.81;5032045;28;20041;-51
2023/09/26 09:10:17;;;;;;;6.90;2.97;;;;;;;36.46;37.30;99292.75;5031974;28;20026;-51
2023/09/26 09:12:50;;;;;;;5.15;2.72;;;;;;;36.69;37.38;99290.94;5031251;28;20044;-51
2023/09/26 09:15:17;;;;;;;5.38;3.13;;;;;;;36.67;37.18;99290.47;5047007;28;20367;-50
2023/09/26 09:17:43;;;;;;;6.45;2.60;;;;;;;35.38;38.41;99292.63;5030293;28;20029;-50
2023/09/26 09:20:10;;;;;;;5.22;2.70;;;;;;;35.55;38.74;99289.53;5032622;28;20029;-50
2023/09/26 09:22:35;;;;;;;8.82;3.05;;;;;;;35.76;38.93;99282.84;5033252;28;20018;-50
2023/09/26 09:25:02;;;;;;;5.65;2.95;;;;;;;35.54;39.12;99285.06;5027528;28;20461;-50
2023/09/26 09:27:32;;;;;;;7.60;3.33;;;;;;;36.67;37.74;99264.28;5028673;28;20021;-50
2023/09/26 09:30:18;;;;;;;6.60;3.08;;;;;;;35.39;38.11;99274.56;5031850;28;20108;-50
2023/09/26 09:32:44;;;;;;;6.22;2.72;;;;;;;35.19;39.42;99264.31;5023648;28;20442;-49
2023/09/26 09:35:15;;;;;;;4.03;2.50;;;;;;;35.32;39.08;99274.38;5030430;28;20061;-50
2023/09/26 09:37:47;;;;;;;7.90;3.20;;;;;;;35.42;39.00;99273.03;5034178;28;20028;-50
2023/09/26 09:40:19;;;;;;;3.80;2.78;;;;;;;36.76;37.63;99265.72;5033383;28;20444;-50
2023/09/26 09:42:46;;;;;;;6.25;2.60;;;;;;;37.32;37.50;99261.72;5030356;28;20049;-50
2023/09/26 09:45:12;;;;;;;4.13;2.40;;;;;;;37.08;37.64;99265.66;5027701;28;20113;-51
2023/09/26 09:47:42;;;;;;;4.07;2.20;;;;;;;37.62;36.74;99270.38;5031599;28;20108;-50
2023/09/26 09:50:08;;;;;;;4.00;1.83;;;;;;;37.75;35.81;99256.91;5030843;28;20413;-51
2023/09/26 09:52:34;;;;;;;7.63;2.30;;;;;;;36.26;37.67;99250.38;5027982;28;20014;-51
2023/09/26 09:55:04;;;;;;;4.32;2.15;;;;;;;36.05;38.08;99255.44;5025618;28;20033;-51
2023/09/26 09:57:33;;;;;;;4.70;2.45;;;;;;;37.39;36.95;99249.72;5020505;28;20079;-50
2023/09/26 10:00:00;;;;;;;4.13;2.70;;;;;;;36.52;37.64;99257.44;5027362;28;20021;-51
2023/09/26 10:02:26;;;;;;;5.15;2.40;;;;;;;35.80;38.25;99249.19;5031347;28;20117;-51
2023/09/26 10:04:55;;;;;;;3.15;2.03;;;;;;;38.03;36.05;99248.19;5022845;28;20124;-51
2023/09/26 10:07:25;;;;;;;3.85;2.20;;;;;;;38.26;35.85;99255.84;5034663;28;20042;-51
2023/09/26 10:09:51;;;;;;;4.18;2.40;;;;;;;36.33;37.45;99255.41;5040723;28;20049;-51
2023/09/26 10:12:17;;;;;;;7.22;2.70;;;;;;;37.98;36.22;99248.50;5032709;28;20048;-50
2023/09/26 10:14:42;;;;;;;5.32;2.85;;;;;;;33.98;40.05;99262.84;5033614;28;20032;-50
2023/09/26 10:17:08;;;;;;;3.85;2.00;;;;;;;37.50;36.81;99234.69;5034279;28;20021;-50
2023/09/26 10:19:34;;;;;;;4.38;2.60;;;;;;;37.80;36.61;99236.03;5030732;28;20169;-50
2023/09/26 10:22:19;;;;;;;5.65;2.63;;;;;;;37.91;35.88;99232.22;5033395;28;20392;-50
2023/09/26 10:24:52;;;;;;;4.55;2.60;;;;;;;36.59;37.12;99235.09;5029302;28;20036;-51
2023/09/26 10:27:33;;;;;;;6.47;2.25;;;;;;;36.79;37.32;99228.31;5032920;28;20484;-50
2023/09/26 10:30:00;;;;;;;5.45;2.40;;;;;;;35.57;38.21;99235.66;5033955;28;20017;-50
2023/09/26 10:32:34;;;;;;;5.10;2.83;;;;;;;36.65;37.27;99233.63;5034397;28;20361;-50
2023/09/26 10:35:23;;;;;;;3.83;1.95;;;;;;;38.21;35.92;99225.06;5033351;28;20120;-50
2023/09/26 10:37:52;;;;;;;5.20;2.33;;;;;;;38.97;34.75;99220.19;5026028;28;20068;-50
2023/09/26 10:40:18;;;;;;;4.07;2.13;;;;;;;39.03;34.58;99217.00;5034736;28;20331;-50
2023/09/26 10:42:49;;;;;;;5.30;2.40;;;;;;;37.41;35.71;99225.59;5033046;28;20023;-50
2023/09/26 10:45:15;;;;;;;3.08;1.77;;;;;;;37.63;35.15;99217.59;5033554;28;20025;-50
2023/09/26 10:47:40;;;;;;;4.72;2.22;;;;;;;35.72;36.80;99206.75;5031943;28;20037;-50
2023/09/26 10:50:14;;;;;;;2.35;1.85;;;;;;;37.54;35.79;99212.16;5041184;28;20025;-50
2023/09/26 10:52:49;;;;;;;3.85;2.13;;;;;;;36.46;37.16;99202.56;5026789;28;20025;-50
2023/09/26 10:55:19;;;;;;;3.58;1.92;;;;;;;37.99;34.60;99209.75;5034870;28;20029;-50
2023/09/26 10:57:45;;;;;;;2.67;2.10;;;;;;;37.23;35.00;99201.84;5030733;28;20385;-50
2023/09/26 11:00:17;;;;;;;3.58;1.80;;;;;;;36.96;35.03;99204.50;5026594;28;20028;-49
2023/09/26 11:02:45;;;;;;;3.28;1.90;;;;;;;37.41;35.03;99203.00;5026515;28;20052;-50
2023/09/26 11:05:13;;;;;;;2.15;1.70;;;;;;;36.74;35.89;99197.59;5029134;28;20029;-50
2023/09/26 11:07:42;;;;;;;4.43;1.42;;;;;;;38.41;34.53;99209.66;5025857;28;20079;-50
2023/09/26 11:10:12;;;;;;;4.78;2.00;;;;;;;36.92;35.27;99194.31;5028202;28;20060;-50
2023/09/26 11:12:38;;;;;;;1.88;1.52;;;;;;;37.49;34.78;99193.50;5032664;28;20036;-50
2023/09/26 11:15:04;;;;;;;6.13;1.67;;;;;;;36.51;36.56;99191.00;5030310;28;20025;-50
2023/09/26 11:17:31;;;;;;;3.28;1.60;;;;;;;37.77;34.13;99192.41;5030000;28;20590;-50
2023/09/26 11:19:57;;;;;;;2.85;1.38;;;;;;;37.69;34.86;99196.31;5024391;28;20022;-50
2023/09/26 11:22:26;;;;;;;5.20;1.55;;;;;;;38.21;34.78;99200.44;5033408;28;20036;-49
2023/09/26 11:25:08;;;;;;;2.08;1.40;;;;;;;38.01;33.83;99190.44;5031094;28;20036;-50
2023/09/26 11:27:44;;;;;;;2.83;1.70;;;;;;;37.75;34.83;99183.50;5041804;28;20033;-50
2023/09/26 11:30:14;;;;;;;3.88;1.70;;;;;;;38.21;33.93;99188.34;5036326;28;20108;-49